地図

経路データ

SID SEASON NUMBER BASIN SUBBASIN NAME ISO_TIME NATURE LAT LON WMO_WIND WMO_PRES WMO_AGENCY TRACK_TYPE DIST2LAND LANDFALL IFLAG USA_AGENCY USA_ATCF_ID USA_LAT USA_LON USA_RECORD USA_STATUS USA_WIND USA_PRES USA_SSHS USA_R34_NE USA_R34_SE USA_R34_SW USA_R34_NW USA_R50_NE USA_R50_SE USA_R50_SW USA_R50_NW USA_R64_NE USA_R64_SE USA_R64_SW USA_R64_NW USA_POCI USA_ROCI USA_RMW USA_EYE TOKYO_LAT TOKYO_LON TOKYO_GRADE TOKYO_WIND TOKYO_PRES TOKYO_R50_DIR TOKYO_R50_LONG TOKYO_R50_SHORT TOKYO_R30_DIR TOKYO_R30_LONG TOKYO_R30_SHORT TOKYO_LAND CMA_LAT CMA_LON CMA_CAT CMA_WIND CMA_PRES HKO_LAT HKO_LON HKO_CAT HKO_WIND HKO_PRES NEWDELHI_LAT NEWDELHI_LON NEWDELHI_GRADE NEWDELHI_WIND NEWDELHI_PRES NEWDELHI_CI NEWDELHI_DP NEWDELHI_POCI REUNION_LAT REUNION_LON REUNION_TYPE REUNION_WIND REUNION_PRES REUNION_TNUM REUNION_CI REUNION_RMW REUNION_R34_NE REUNION_R34_SE REUNION_R34_SW REUNION_R34_NW REUNION_R50_NE REUNION_R50_SE REUNION_R50_SW REUNION_R50_NW REUNION_R64_NE REUNION_R64_SE REUNION_R64_SW REUNION_R64_NW BOM_LAT BOM_LON BOM_TYPE BOM_WIND BOM_PRES BOM_TNUM BOM_CI BOM_RMW BOM_R34_NE BOM_R34_SE BOM_R34_SW BOM_R34_NW BOM_R50_NE BOM_R50_SE BOM_R50_SW BOM_R50_NW BOM_R64_NE BOM_R64_SE BOM_R64_SW BOM_R64_NW BOM_ROCI BOM_POCI BOM_EYE BOM_POS_METHOD BOM_PRES_METHOD NADI_LAT NADI_LON NADI_CAT NADI_WIND NADI_PRES WELLINGTON_LAT WELLINGTON_LON WELLINGTON_WIND WELLINGTON_PRES DS824_LAT DS824_LON DS824_STAGE DS824_WIND DS824_PRES TD9636_LAT TD9636_LON TD9636_STAGE TD9636_WIND TD9636_PRES TD9635_LAT TD9635_LON TD9635_WIND TD9635_PRES TD9635_ROCI NEUMANN_LAT NEUMANN_LON NEUMANN_CLASS NEUMANN_WIND NEUMANN_PRES MLC_LAT MLC_LON MLC_CLASS MLC_WIND MLC_PRES USA_GUST BOM_GUST BOM_GUST_PER REUNION_GUST REUNION_GUST_PER USA_SEAHGT USA_SEARAD_NE USA_SEARAD_SE USA_SEARAD_SW USA_SEARAD_NW STORM_SPEED STORM_DIR
1935232N15153 1935 45 WP MM NOT_NAMED 1935-08-19 21:00:00 NR 14.9000 153.000 main 1985 1982 __________O___ -1 14.9000 153.000 4 8 283
1935232N15153 1935 45 WP MM NOT_NAMED 1935-08-20 00:00:00 NR 14.9897 152.605 main 1991 1989 __________P___ -1 14.9897 152.605 4 8 284
1935232N15153 1935 45 WP MM NOT_NAMED 1935-08-20 03:00:00 NR 15.0832 152.218 main 1998 1992 __________P___ -1 15.0832 152.218 4 8 285
1935232N15153 1935 45 WP MM NOT_NAMED 1935-08-20 06:00:00 NR 15.1851 151.847 main 1997 1995 __________P___ -1 15.1851 151.847 4 7 287
1935232N15153 1935 45 WP MM NOT_NAMED 1935-08-20 09:00:00 NR 15.3000 151.500 main 2000 1998 __________O___ -1 15.3000 151.500 4 7 291
1935232N15153 1935 45 WP MM NOT_NAMED 1935-08-20 12:00:00 NR 15.4297 151.183 main 2004 2002 __________P___ -1 15.4297 151.183 4 7 294
1935232N15153 1935 45 WP MM NOT_NAMED 1935-08-20 15:00:00 NR 15.5646 150.885 main 2019 2015 __________P___ -1 15.5646 150.885 4 6 295
1935232N15153 1935 45 WP MM NOT_NAMED 1935-08-20 18:00:00 NR 15.6922 150.595 main 2024 2022 __________P___ -1 15.6922 150.595 4 6 293
1935232N15153 1935 45 WP MM NOT_NAMED 1935-08-20 21:00:00 NR 15.8000 150.300 main 2030 2027 __________O___ -1 15.8000 150.300 4 6 287
1935232N15153 1935 45 WP MM NOT_NAMED 1935-08-21 00:00:00 NR 15.8797 149.970 main 2036 2032 __________P___ -1 15.8797 149.970 4 7 282
1935232N15153 1935 45 WP MM NOT_NAMED 1935-08-21 03:00:00 NR 15.9376 149.635 main 2030 2030 __________P___ -1 15.9376 149.635 4 6 279
1935232N15153 1935 45 WP MM NOT_NAMED 1935-08-21 06:00:00 NR 15.9766 149.307 main 2038 2035 __________P___ -1 15.9766 149.307 4 6 276
1935232N15153 1935 45 WP MM NOT_NAMED 1935-08-21 09:00:00 NR 16.0000 149.000 main 2035 2033 __________O___ -1 16.0000 149.000 4 5 273
1935232N15153 1935 45 WP MM NOT_NAMED 1935-08-21 12:00:00 NR 16.0056 148.769 main 2033 2031 __________P___ -1 16.0056 148.769 4 4 270
1935232N15153 1935 45 WP MM NOT_NAMED 1935-08-21 15:00:00 NR 15.9990 148.552 main 2031 2029 __________P___ -1 15.9990 148.552 4 4 268
1935232N15153 1935 45 WP MM NOT_NAMED 1935-08-21 18:00:00 NR 15.9930 148.309 main 2029 2028 __________P___ -1 15.9930 148.309 4 5 270
1935232N15153 1935 45 WP MM NOT_NAMED 1935-08-21 21:00:00 NR 16.0000 148.000 main 2028 2027 __________O___ -1 16.0000 148.000 4 7 268
1935232N15153 1935 45 WP MM NOT_NAMED 1935-08-22 00:00:00 NR 15.9742 147.615 main 2027 2027 __________P___ -1 15.9742 147.615 4 8 268
1935232N15153 1935 45 WP MM NOT_NAMED 1935-08-22 03:00:00 NR 15.9715 147.155 main 2027 2027 __________P___ -1 15.9715 147.155 4 10 274
1935232N15153 1935 45 WP MM NOT_NAMED 1935-08-22 06:00:00 NR 16.0332 146.617 main 2027 2027 __________P___ -1 16.0332 146.617 4 11 282
1935232N15153 1935 45 WP MM NOT_NAMED 1935-08-22 09:00:00 NR 16.2000 146.000 main 2051 2051 __________O___ -1 16.2000 146.000 4 14 291
1935232N15153 1935 45 WP MM NOT_NAMED 1935-08-22 12:00:00 NR 16.5475 145.238 main 2089 2027 __________P___ -1 16.5475 145.238 4 17 297
1935232N15153 1935 45 WP MM NOT_NAMED 1935-08-22 15:00:00 NR 16.9929 144.409 main 2023 1949 __________P___ -1 16.9929 144.409 4 18 300
1935232N15153 1935 45 WP MM NOT_NAMED 1935-08-22 18:00:00 NR 17.4664 143.600 main 1939 1870 __________P___ -1 17.4664 143.600 4 17 302
1935232N15153 1935 45 WP MM NOT_NAMED 1935-08-22 21:00:00 NR 17.9000 142.900 main 1870 1824 __________O___ -1 17.9000 142.900 4 13 303
1935232N15153 1935 45 WP MM NOT_NAMED 1935-08-23 00:00:00 NR 18.1818 142.454 main 1824 1788 __________P___ -1 18.1818 142.454 4 9 305
1935232N15153 1935 45 WP MM NOT_NAMED 1935-08-23 03:00:00 NR 18.4195 142.122 main 1788 1757 __________P___ -1 18.4195 142.122 4 8 308
1935232N15153 1935 45 WP MM NOT_NAMED 1935-08-23 06:00:00 NR 18.6477 141.829 main 1757 1715 __________P___ -1 18.6477 141.829 4 8 309
1935232N15153 1935 45 WP MM NOT_NAMED 1935-08-23 09:00:00 NR 18.9000 141.500 main 1715 1667 __________O___ -1 18.9000 141.500 4 10 305
1935232N15153 1935 45 WP MM NOT_NAMED 1935-08-23 12:00:00 NR 19.1974 141.009 main 1667 1611 __________P___ -1 19.1974 141.009 4 12 303
1935232N15153 1935 45 WP MM NOT_NAMED 1935-08-23 15:00:00 NR 19.5258 140.472 main 1611 1545 __________P___ -1 19.5258 140.472 4 12 304
1935232N15153 1935 45 WP MM NOT_NAMED 1935-08-23 18:00:00 NR 19.8911 139.924 main 1539 1474 __________P___ -1 19.8911 139.924 4 13 308
1935232N15153 1935 45 WP MM NOT_NAMED 1935-08-23 21:00:00 NR 20.3000 139.400 main 1474 1414 __________O___ -1 20.3000 139.400 4 12 314
1935232N15153 1935 45 WP MM NOT_NAMED 1935-08-24 00:00:00 NR 20.7270 138.984 main 1414 1345 __________P___ -1 20.7270 138.984 4 12 320
1935232N15153 1935 45 WP MM NOT_NAMED 1935-08-24 03:00:00 NR 21.2004 138.591 main 1345 1276 __________P___ -1 21.2004 138.591 4 13 323
1935232N15153 1935 45 WP MM NOT_NAMED 1935-08-24 06:00:00 NR 21.7237 138.177 main 1276 1192 __________P___ -1 21.7237 138.177 4 14 323
1935232N15153 1935 45 WP MM NOT_NAMED 1935-08-24 09:00:00 NR 22.3000 137.700 main 1192 1093 __________O___ -1 22.3000 137.700 4 17 320
1935232N15153 1935 45 WP MM NOT_NAMED 1935-08-24 12:00:00 NR 23.0162 137.025 main 1088 984 __________P___ -1 23.0162 137.025 4 20 318
1935232N15153 1935 45 WP MM NOT_NAMED 1935-08-24 15:00:00 NR 23.7658 136.291 main 975 880 __________P___ -1 23.7658 136.291 4 20 318
1935232N15153 1935 45 WP MM NOT_NAMED 1935-08-24 18:00:00 NR 24.4571 135.585 main 870 791 __________P___ -1 24.4571 135.585 4 17 316
1935232N15153 1935 45 WP MM NOT_NAMED 1935-08-24 21:00:00 NR 25.0000 135.000 main 791 747 __________O___ -1 25.0000 135.000 4 12 315
1935232N15153 1935 45 WP MM NOT_NAMED 1935-08-25 00:00:00 NR 25.2851 134.655 main 747 727 __________P___ -1 25.2851 134.655 4 7 310
1935232N15153 1935 45 WP MM NOT_NAMED 1935-08-25 03:00:00 NR 25.4201 134.445 main 722 707 __________P___ -1 25.4201 134.445 4 4 301
1935232N15153 1935 45 WP MM NOT_NAMED 1935-08-25 06:00:00 NR 25.4702 134.313 main 707 702 __________P___ -1 25.4702 134.313 4 2 290
1935232N15153 1935 45 WP MM NOT_NAMED 1935-08-25 09:00:00 NR 25.5000 134.200 main 702 683 __________O___ -1 25.5000 134.200 4 3 293
1935232N15153 1935 45 WP MM NOT_NAMED 1935-08-25 12:00:00 NR 25.5868 134.013 main 683 664 __________P___ -1 25.5868 134.013 4 4 297
1935232N15153 1935 45 WP MM NOT_NAMED 1935-08-25 15:00:00 NR 25.6699 133.835 main 664 650 __________P___ -1 25.6699 133.835 4 4 300
1935232N15153 1935 45 WP MM NOT_NAMED 1935-08-25 18:00:00 NR 25.7681 133.663 main 650 631 __________P___ -1 25.7681 133.663 4 4 307
1935232N15153 1935 45 WP MM NOT_NAMED 1935-08-25 21:00:00 NR 25.9000 133.500 main 631 607 __________O___ -1 25.9000 133.500 4 4 320
1935232N15153 1935 45 WP MM NOT_NAMED 1935-08-26 00:00:00 NR 26.1011 133.355 main 607 578 __________P___ -1 26.1011 133.355 4 5 329
1935232N15153 1935 45 WP MM NOT_NAMED 1935-08-26 03:00:00 NR 26.3347 133.215 main 578 543 __________P___ -1 26.3347 133.215 4 5 332
1935232N15153 1935 45 WP MM NOT_NAMED 1935-08-26 06:00:00 NR 26.5760 133.067 main 543 515 __________P___ -1 26.5760 133.067 4 5 329
1935232N15153 1935 45 WP MM NOT_NAMED 1935-08-26 09:00:00 NR 26.8000 132.900 main 515 497 __________O___ -1 26.8000 132.900 4 5 318
1935232N15153 1935 45 WP MM NOT_NAMED 1935-08-26 12:00:00 NR 26.9432 132.692 main 497 469 __________P___ -1 26.9432 132.692 4 5 305
1935232N15153 1935 45 WP MM NOT_NAMED 1935-08-26 15:00:00 NR 27.0701 132.464 main 469 448 __________P___ -1 27.0701 132.464 4 5 303
1935232N15153 1935 45 WP MM NOT_NAMED 1935-08-26 18:00:00 NR 27.2119 132.229 main 448 421 __________P___ -1 27.2119 132.229 4 5 309
1935232N15153 1935 45 WP MM NOT_NAMED 1935-08-26 21:00:00 NR 27.4000 132.000 main 421 383 __________O___ -1 27.4000 132.000 4 6 317
1935232N15153 1935 45 WP MM NOT_NAMED 1935-08-27 00:00:00 NR 27.6708 131.745 main 380 343 __________P___ -1 27.6708 131.745 4 7 323
1935232N15153 1935 45 WP MM NOT_NAMED 1935-08-27 03:00:00 NR 27.9902 131.504 main 343 306 __________P___ -1 27.9902 131.504 4 8 330
1935232N15153 1935 45 WP MM NOT_NAMED 1935-08-27 06:00:00 NR 28.3395 131.311 main 306 261 __________P___ -1 28.3395 131.311 4 8 339
1935232N15153 1935 45 WP MM NOT_NAMED 1935-08-27 09:00:00 NR 28.7000 131.200 main 261 228 __________O___ -1 28.7000 131.200 4 7 352
1935232N15153 1935 45 WP MM NOT_NAMED 1935-08-27 12:00:00 NR 29.0224 131.205 main 228 198 __________P___ -1 29.0224 131.205 4 7 7
1935232N15153 1935 45 WP MM NOT_NAMED 1935-08-27 15:00:00 NR 29.3549 131.294 main 187 159 __________P___ -1 29.3549 131.294 4 7 16
1935232N15153 1935 45 WP MM NOT_NAMED 1935-08-27 18:00:00 NR 29.7100 131.437 main 159 132 __________P___ -1 29.7100 131.437 4 8 20
1935232N15153 1935 45 WP MM NOT_NAMED 1935-08-27 21:00:00 NR 30.1000 131.600 main 132 101 __________O___ -1 30.1000 131.600 4 8 13
1935232N15153 1935 45 WP MM NOT_NAMED 1935-08-28 00:00:00 NR 30.4931 131.651 main 104 62 __________P___ -1 30.4931 131.651 4 8 8
1935232N15153 1935 45 WP MM NOT_NAMED 1935-08-28 03:00:00 NR 30.9277 131.728 main 62 39 __________P___ -1 30.9277 131.728 4 10 12
1935232N15153 1935 45 WP MM NOT_NAMED 1935-08-28 06:00:00 NR 31.4235 131.891 main 47 47 __________P___ -1 31.4235 131.891 4 11 21
1935232N15153 1935 45 WP MM NOT_NAMED 1935-08-28 09:00:00 NR 32.0000 132.200 main 64 11 __________O___ -1 32.0000 132.200 4 14 27
1935232N15153 1935 45 WP MM NOT_NAMED 1935-08-28 12:00:00 NR 32.7101 132.667 main 11 0 __________P___ -1 32.7101 132.667 4 18 32
1935232N15153 1935 45 WP MM NOT_NAMED 1935-08-28 15:00:00 NR 33.4896 133.298 main 0 0 __________P___ -1 33.4896 133.298 4 20 37
1935232N15153 1935 45 WP MM NOT_NAMED 1935-08-28 18:00:00 NR 34.2744 134.080 main 0 0 __________P___ -1 34.2744 134.080 4 21 43
1935232N15153 1935 45 WP MM NOT_NAMED 1935-08-28 21:00:00 NR 35.0000 135.000 main 0 0 __________O___ -1 35.0000 135.000 4 19 54
1935232N15153 1935 45 WP MM NOT_NAMED 1935-08-29 00:00:00 NR 35.4064 136.015 main 0 0 __________P___ -1 35.4064 136.015 4 19 66
1935232N15153 1935 45 WP MM NOT_NAMED 1935-08-29 03:00:00 NR 35.7686 137.148 main 0 0 __________P___ -1 35.7686 137.148 4 21 66
1935232N15153 1935 45 WP MM NOT_NAMED 1935-08-29 06:00:00 NR 36.2459 138.354 main 0 0 __________P___ -1 36.2459 138.354 4 23 58
1935232N15153 1935 45 WP MM NOT_NAMED 1935-08-29 09:00:00 NR 37.0000 139.600 main 0 0 __________O___ -1 37.0000 139.600 4 30 44
1935232N15153 1935 45 WP MM NOT_NAMED 1935-08-29 12:00:00 NR 38.3716 140.929 main 0 0 __________P___ -1 38.3716 140.929 4 37 35
1935232N15153 1935 45 WP MM NOT_NAMED 1935-08-29 15:00:00 NR 40.0044 142.323 main 33 33 __________P___ -1 40.0044 142.323 4 39 33
1935232N15153 1935 45 WP MM NOT_NAMED 1935-08-29 18:00:00 NR 41.6589 143.713 main 46 0 __________P___ -1 41.6589 143.713 4 37 33
1935232N15153 1935 45 WP MM NOT_NAMED 1935-08-29 21:00:00 NR 43.1000 145.000 main 0 0 __________O___ -1 43.1000 145.000 4 29 35
1935232N15153 1935 45 WP MM NOT_NAMED 1935-08-30 00:00:00 NR 44.0226 146.008 main 13 0 __________P___ -1 44.0226 146.008 4 21 40
1935232N15153 1935 45 WP MM NOT_NAMED 1935-08-30 03:00:00 NR 44.7179 146.864 main 13 11 __________P___ -1 44.7179 146.864 4 17 43
1935232N15153 1935 45 WP MM NOT_NAMED 1935-08-30 06:00:00 NR 45.2802 147.661 main 15 11 __________P___ -1 45.2802 147.661 4 16 47
1935232N15153 1935 45 WP MM NOT_NAMED 1935-08-30 09:00:00 NR 45.8000 148.500 main 45 44 __________O___ -1 45.8000 148.500 4 18 50
1935232N15153 1935 45 WP MM NOT_NAMED 1935-08-30 12:00:00 NR 46.4197 149.621 main 53 53 __________P___ -1 46.4197 149.621 4 20 53
1935232N15153 1935 45 WP MM NOT_NAMED 1935-08-30 15:00:00 NR 47.0084 150.800 main 104 104 __________P___ -1 47.0084 150.800 4 20 54
1935232N15153 1935 45 WP MM NOT_NAMED 1935-08-30 18:00:00 NR 47.5670 151.954 main 205 205 __________P___ -1 47.5670 151.954 4 18 54
1935232N15153 1935 45 WP MM NOT_NAMED 1935-08-30 21:00:00 NR 48.1000 153.000 main 273 189 __________O___ -1 48.1000 153.000 4 17 52
1935232N15153 1935 45 WP MM NOT_NAMED 1935-08-31 00:00:00 NR 48.5937 153.926 main 189 121 __________P___ -1 48.5937 153.926 4 15 49
1935232N15153 1935 45 WP MM NOT_NAMED 1935-08-31 03:00:00 NR 49.0738 154.713 main 111 55 __________P___ -1 49.0738 154.713 4 13 44
1935232N15153 1935 45 WP MM NOT_NAMED 1935-08-31 06:00:00 NR 49.5671 155.344 main 44 11 __________P___ -1 49.5671 155.344 4 12 35
1935232N15153 1935 45 WP MM NOT_NAMED 1935-08-31 09:00:00 NR 50.1000 155.800 main 11 0 __________O___ -1 50.1000 155.800 4 13 19
1935232N15153 1935 45 WP MM NOT_NAMED 1935-08-31 12:00:00 NR 50.7555 155.995 main 11 11 __________P___ -1 50.7555 155.995 4 14 6
1935232N15153 1935 45 WP MM NOT_NAMED 1935-08-31 15:00:00 NR 51.4471 156.029 main 34 33 __________P___ -1 51.4471 156.029 4 14 2
1935232N15153 1935 45 WP MM NOT_NAMED 1935-08-31 18:00:00 NR 52.1151 156.047 main 33 6 __________P___ -1 52.1151 156.047 4 13 5
1935232N15153 1935 45 WP MM NOT_NAMED 1935-08-31 21:00:00 NR 52.7000 156.200 main 6 0 __________O___ -1 52.7000 156.200 4 12 18
1935232N15153 1935 45 WP MM NOT_NAMED 1935-09-01 00:00:00 NR 53.2112 156.649 main 0 0 __________P___ -1 53.2112 156.649 4 11 35
1935232N15153 1935 45 WP MM NOT_NAMED 1935-09-01 03:00:00 NR 53.6185 157.269 main 0 0 __________P___ -1 53.6185 157.269 4 11 50
1935232N15153 1935 45 WP MM NOT_NAMED 1935-09-01 06:00:00 NR 53.8916 158.031 main 0 0 __________P___ -1 53.8916 158.031 4 10 68
1935232N15153 1935 45 WP MM NOT_NAMED 1935-09-01 09:00:00 NR 54.0000 158.900 main 0 0 __________O___ -1 54.0000 158.900 4 11 88
1935232N15153 1935 45 WP MM NOT_NAMED 1935-09-01 12:00:00 NR 53.9266 159.838 main 0 0 __________P___ -1 53.9266 159.838 4 12 105
1935232N15153 1935 45 WP MM NOT_NAMED 1935-09-01 15:00:00 NR 53.7045 160.816 main 56 56 __________P___ -1 53.7045 160.816 4 13 115
1935232N15153 1935 45 WP MM NOT_NAMED 1935-09-01 18:00:00 NR 53.3800 161.810 main 117 117 __________P___ -1 53.3800 161.810 4 14 121
1935232N15153 1935 45 WP MM NOT_NAMED 1935-09-01 21:00:00 NR 53.0000 162.800 main 179 __________O___ -1 53.0000 162.800 4 14 123

デジタル台風データ・検索

IBTrACS Databaseについて

本データベースは、米国NOAAが公開する1842年以降の世界の熱帯低気圧のベストトラックデータアーカイブInternational Best Track Archive for Climate Stewardship (IBTrACS)を、ウェブで閲覧しやすい形式に変換したものです。

最終更新日:2021-12-03